sensor_id;sensor_type;location;lat;lon;timestamp;temperature;humidity
16285;DHT22;8250;52.426;9.450;2022-09-28T00:01:28;9.90;99.90
16285;DHT22;8250;52.426;9.450;2022-09-28T00:03:55;9.90;99.90
16285;DHT22;8250;52.426;9.450;2022-09-28T00:06:26;9.90;99.90
16285;DHT22;8250;52.426;9.450;2022-09-28T00:08:53;9.90;99.90
16285;DHT22;8250;52.426;9.450;2022-09-28T00:11:21;9.90;99.90
16285;DHT22;8250;52.426;9.450;2022-09-28T00:13:54;9.90;99.90
16285;DHT22;8250;52.426;9.450;2022-09-28T00:16:25;9.80;99.90
16285;DHT22;8250;52.426;9.450;2022-09-28T00:18:54;9.80;99.90
16285;DHT22;8250;52.426;9.450;2022-09-28T00:21:22;9.90;99.90
16285;DHT22;8250;52.426;9.450;2022-09-28T00:23:51;9.90;99.90
16285;DHT22;8250;52.426;9.450;2022-09-28T00:26:36;9.80;99.90
16285;DHT22;8250;52.426;9.450;2022-09-28T00:29:03;9.80;99.90
16285;DHT22;8250;52.426;9.450;2022-09-28T00:31:31;9.80;99.90
16285;DHT22;8250;52.426;9.450;2022-09-28T00:34:00;9.70;99.90
16285;DHT22;8250;52.426;9.450;2022-09-28T00:36:30;9.70;99.90
16285;DHT22;8250;52.426;9.450;2022-09-28T00:38:58;9.70;99.90
16285;DHT22;8250;52.426;9.450;2022-09-28T00:41:29;9.70;99.90
16285;DHT22;8250;52.426;9.450;2022-09-28T00:47:20;9.80;99.90
16285;DHT22;8250;52.426;9.450;2022-09-28T00:49:55;9.80;99.90
16285;DHT22;8250;52.426;9.450;2022-09-28T00:52:25;9.80;99.90
16285;DHT22;8250;52.426;9.450;2022-09-28T00:54:54;9.80;99.90
16285;DHT22;8250;52.426;9.450;2022-09-28T00:57:22;9.90;99.90
16285;DHT22;8250;52.426;9.450;2022-09-28T00:59:50;9.90;99.90
16285;DHT22;8250;52.426;9.450;2022-09-28T01:02:18;9.90;99.90
16285;DHT22;8250;52.426;9.450;2022-09-28T01:04:46;9.90;99.90
16285;DHT22;8250;52.426;9.450;2022-09-28T01:07:15;10.00;99.90
16285;DHT22;8250;52.426;9.450;2022-09-28T01:09:43;10.10;99.90
16285;DHT22;8250;52.426;9.450;2022-09-28T01:12:11;10.10;99.90
16285;DHT22;8250;52.426;9.450;2022-09-28T01:14:39;10.10;99.90
16285;DHT22;8250;52.426;9.450;2022-09-28T01:17:12;10.10;99.90
16285;DHT22;8250;52.426;9.450;2022-09-28T01:23:04;10.20;99.90
16285;DHT22;8250;52.426;9.450;2022-09-28T01:25:41;10.20;99.90
16285;DHT22;8250;52.426;9.450;2022-09-28T01:28:13;10.20;99.90
16285;DHT22;8250;52.426;9.450;2022-09-28T01:30:44;10.30;99.90
16285;DHT22;8250;52.426;9.450;2022-09-28T01:33:17;10.30;99.90
16285;DHT22;8250;52.426;9.450;2022-09-28T01:35:49;10.30;99.90
16285;DHT22;8250;52.426;9.450;2022-09-28T01:38:20;10.30;99.90
16285;DHT22;8250;52.426;9.450;2022-09-28T01:40:48;10.30;99.90
16285;DHT22;8250;52.426;9.450;2022-09-28T01:43:21;10.30;99.90
16285;DHT22;8250;52.426;9.450;2022-09-28T01:45:51;10.30;99.90
16285;DHT22;8250;52.426;9.450;2022-09-28T01:48:22;10.30;99.90
16285;DHT22;8250;52.426;9.450;2022-09-28T01:50:54;10.40;99.90
16285;DHT22;8250;52.426;9.450;2022-09-28T01:53:29;10.40;99.90
16285;DHT22;8250;52.426;9.450;2022-09-28T01:56:00;10.40;99.90
16285;DHT22;8250;52.426;9.450;2022-09-28T01:58:35;10.40;99.90
16285;DHT22;8250;52.426;9.450;2022-09-28T02:01:07;10.40;99.90
16285;DHT22;8250;52.426;9.450;2022-09-28T02:03:38;10.40;99.90
16285;DHT22;8250;52.426;9.450;2022-09-28T02:06:11;10.40;99.90
16285;DHT22;8250;52.426;9.450;2022-09-28T02:08:44;10.40;99.90
16285;DHT22;8250;52.426;9.450;2022-09-28T02:11:14;10.40;99.90
16285;DHT22;8250;52.426;9.450;2022-09-28T02:13:46;10.40;99.90
16285;DHT22;8250;52.426;9.450;2022-09-28T02:16:19;10.40;99.90
16285;DHT22;8250;52.426;9.450;2022-09-28T02:18:47;10.40;99.90
16285;DHT22;8250;52.426;9.450;2022-09-28T02:21:19;10.30;99.90
16285;DHT22;8250;52.426;9.450;2022-09-28T02:23:51;10.40;99.90
16285;DHT22;8250;52.426;9.450;2022-09-28T02:26:26;10.40;99.90
16285;DHT22;8250;52.426;9.450;2022-09-28T02:28:57;10.40;99.90
16285;DHT22;8250;52.426;9.450;2022-09-28T02:31:25;10.40;99.90
16285;DHT22;8250;52.426;9.450;2022-09-28T02:33:52;10.40;99.90
16285;DHT22;8250;52.426;9.450;2022-09-28T02:36:21;10.40;99.90
16285;DHT22;8250;52.426;9.450;2022-09-28T02:38:48;10.40;99.90
16285;DHT22;8250;52.426;9.450;2022-09-28T02:41:25;10.40;99.90
16285;DHT22;8250;52.426;9.450;2022-09-28T02:44:06;10.40;99.90
16285;DHT22;8250;52.426;9.450;2022-09-28T02:46:44;10.40;99.90
16285;DHT22;8250;52.426;9.450;2022-09-28T02:49:19;10.40;99.90
16285;DHT22;8250;52.426;9.450;2022-09-28T02:52:13;10.40;99.90
16285;DHT22;8250;52.426;9.450;2022-09-28T02:55:06;10.40;99.90
16285;DHT22;8250;52.426;9.450;2022-09-28T02:57:45;10.30;99.90
16285;DHT22;8250;52.426;9.450;2022-09-28T03:00:17;10.20;99.90
16285;DHT22;8250;52.426;9.450;2022-09-28T03:02:50;10.30;99.90
16285;DHT22;8250;52.426;9.450;2022-09-28T03:05:30;10.30;99.90
16285;DHT22;8250;52.426;9.450;2022-09-28T03:08:02;10.30;99.90
16285;DHT22;8250;52.426;9.450;2022-09-28T03:10:34;10.30;99.90
16285;DHT22;8250;52.426;9.450;2022-09-28T03:13:03;10.30;99.90
16285;DHT22;8250;52.426;9.450;2022-09-28T03:15:34;10.30;99.90
16285;DHT22;8250;52.426;9.450;2022-09-28T03:18:01;10.30;99.90
16285;DHT22;8250;52.426;9.450;2022-09-28T03:20:29;10.30;99.90
16285;DHT22;8250;52.426;9.450;2022-09-28T03:22:57;10.30;99.90
16285;DHT22;8250;52.426;9.450;2022-09-28T03:25:25;10.30;99.90
16285;DHT22;8250;52.426;9.450;2022-09-28T03:27:52;10.30;99.90
16285;DHT22;8250;52.426;9.450;2022-09-28T03:30:18;10.30;99.90
16285;DHT22;8250;52.426;9.450;2022-09-28T03:32:55;10.30;99.90
16285;DHT22;8250;52.426;9.450;2022-09-28T03:35:23;10.30;99.90
16285;DHT22;8250;52.426;9.450;2022-09-28T03:37:53;10.40;99.90
16285;DHT22;8250;52.426;9.450;2022-09-28T03:40:20;10.40;99.90
16285;DHT22;8250;52.426;9.450;2022-09-28T03:42:47;10.40;99.90
16285;DHT22;8250;52.426;9.450;2022-09-28T03:45:14;10.30;99.90
16285;DHT22;8250;52.426;9.450;2022-09-28T03:47:44;10.30;99.90
16285;DHT22;8250;52.426;9.450;2022-09-28T03:50:13;10.30;99.90
16285;DHT22;8250;52.426;9.450;2022-09-28T03:52:39;10.30;99.90
16285;DHT22;8250;52.426;9.450;2022-09-28T03:55:07;10.30;99.90
16285;DHT22;8250;52.426;9.450;2022-09-28T03:57:34;10.30;99.90
16285;DHT22;8250;52.426;9.450;2022-09-28T04:00:01;10.30;99.90
16285;DHT22;8250;52.426;9.450;2022-09-28T04:02:28;10.30;99.90
16285;DHT22;8250;52.426;9.450;2022-09-28T04:04:55;10.30;99.90
16285;DHT22;8250;52.426;9.450;2022-09-28T04:07:24;10.20;99.90
16285;DHT22;8250;52.426;9.450;2022-09-28T04:09:50;10.20;99.90
16285;DHT22;8250;52.426;9.450;2022-09-28T04:12:17;10.20;99.90
16285;DHT22;8250;52.426;9.450;2022-09-28T04:14:44;10.30;99.90
16285;DHT22;8250;52.426;9.450;2022-09-28T04:17:11;10.20;99.90
16285;DHT22;8250;52.426;9.450;2022-09-28T04:19:38;10.20;99.90
16285;DHT22;8250;52.426;9.450;2022-09-28T04:22:05;10.20;99.90
16285;DHT22;8250;52.426;9.450;2022-09-28T04:24:33;10.30;99.90
16285;DHT22;8250;52.426;9.450;2022-09-28T04:27:00;10.30;99.90
16285;DHT22;8250;52.426;9.450;2022-09-28T04:29:40;10.30;99.90
16285;DHT22;8250;52.426;9.450;2022-09-28T04:32:09;10.30;99.90
16285;DHT22;8250;52.426;9.450;2022-09-28T04:34:35;10.30;99.90
16285;DHT22;8250;52.426;9.450;2022-09-28T04:37:02;10.30;99.90
16285;DHT22;8250;52.426;9.450;2022-09-28T04:39:29;10.30;99.90
16285;DHT22;8250;52.426;9.450;2022-09-28T04:41:58;10.30;99.90
16285;DHT22;8250;52.426;9.450;2022-09-28T04:44:25;10.30;99.90
16285;DHT22;8250;52.426;9.450;2022-09-28T04:46:54;10.30;99.90
16285;DHT22;8250;52.426;9.450;2022-09-28T04:49:21;10.30;99.90
16285;DHT22;8250;52.426;9.450;2022-09-28T04:51:49;10.30;99.90
16285;DHT22;8250;52.426;9.450;2022-09-28T04:54:15;10.20;99.90
16285;DHT22;8250;52.426;9.450;2022-09-28T04:56:42;10.20;99.90
16285;DHT22;8250;52.426;9.450;2022-09-28T04:59:11;10.20;99.90
16285;DHT22;8250;52.426;9.450;2022-09-28T05:01:38;10.20;99.90
16285;DHT22;8250;52.426;9.450;2022-09-28T05:04:05;10.20;99.90
16285;DHT22;8250;52.426;9.450;2022-09-28T05:06:32;10.20;99.90
16285;DHT22;8250;52.426;9.450;2022-09-28T05:08:58;10.20;99.90
16285;DHT22;8250;52.426;9.450;2022-09-28T05:11:25;10.30;99.90
16285;DHT22;8250;52.426;9.450;2022-09-28T05:13:52;10.30;99.90
16285;DHT22;8250;52.426;9.450;2022-09-28T05:16:20;10.20;99.90
16285;DHT22;8250;52.426;9.450;2022-09-28T05:18:53;10.20;99.90
16285;DHT22;8250;52.426;9.450;2022-09-28T05:21:20;10.20;99.90
16285;DHT22;8250;52.426;9.450;2022-09-28T05:23:50;10.20;99.90
16285;DHT22;8250;52.426;9.450;2022-09-28T05:26:17;10.20;99.90
16285;DHT22;8250;52.426;9.450;2022-09-28T05:28:44;10.20;99.90
16285;DHT22;8250;52.426;9.450;2022-09-28T05:31:10;10.20;99.90
16285;DHT22;8250;52.426;9.450;2022-09-28T05:33:39;10.20;99.90
16285;DHT22;8250;52.426;9.450;2022-09-28T05:36:07;10.20;99.90
16285;DHT22;8250;52.426;9.450;2022-09-28T05:38:35;10.20;99.90
16285;DHT22;8250;52.426;9.450;2022-09-28T05:41:02;10.20;99.90
16285;DHT22;8250;52.426;9.450;2022-09-28T05:43:29;10.20;99.90
16285;DHT22;8250;52.426;9.450;2022-09-28T05:45:58;10.20;99.90
16285;DHT22;8250;52.426;9.450;2022-09-28T05:48:25;10.20;99.90
16285;DHT22;8250;52.426;9.450;2022-09-28T05:50:53;10.20;99.90
16285;DHT22;8250;52.426;9.450;2022-09-28T05:53:20;10.20;99.90
16285;DHT22;8250;52.426;9.450;2022-09-28T05:55:47;10.20;99.90
16285;DHT22;8250;52.426;9.450;2022-09-28T05:58:14;10.20;99.90
16285;DHT22;8250;52.426;9.450;2022-09-28T06:00:41;10.20;99.90
16285;DHT22;8250;52.426;9.450;2022-09-28T06:03:11;10.20;99.90
16285;DHT22;8250;52.426;9.450;2022-09-28T06:05:38;10.20;99.90
16285;DHT22;8250;52.426;9.450;2022-09-28T06:08:07;10.10;99.90
16285;DHT22;8250;52.426;9.450;2022-09-28T06:10:36;10.10;99.90
16285;DHT22;8250;52.426;9.450;2022-09-28T06:13:03;10.20;99.90
16285;DHT22;8250;52.426;9.450;2022-09-28T06:15:33;10.20;99.90
16285;DHT22;8250;52.426;9.450;2022-09-28T06:18:01;10.20;99.90
16285;DHT22;8250;52.426;9.450;2022-09-28T06:20:32;10.20;99.90
16285;DHT22;8250;52.426;9.450;2022-09-28T06:22:59;10.20;99.90
16285;DHT22;8250;52.426;9.450;2022-09-28T06:25:28;10.20;99.90
16285;DHT22;8250;52.426;9.450;2022-09-28T06:27:56;10.20;99.90
16285;DHT22;8250;52.426;9.450;2022-09-28T06:30:24;10.20;99.90
16285;DHT22;8250;52.426;9.450;2022-09-28T06:32:52;10.20;99.90
16285;DHT22;8250;52.426;9.450;2022-09-28T06:35:19;10.10;99.90
16285;DHT22;8250;52.426;9.450;2022-09-28T06:37:46;10.10;99.90
16285;DHT22;8250;52.426;9.450;2022-09-28T06:40:13;10.10;99.90
16285;DHT22;8250;52.426;9.450;2022-09-28T06:42:42;10.10;99.90
16285;DHT22;8250;52.426;9.450;2022-09-28T06:45:09;10.10;99.90
16285;DHT22;8250;52.426;9.450;2022-09-28T06:47:36;10.10;99.90
16285;DHT22;8250;52.426;9.450;2022-09-28T06:50:04;10.10;99.90
16285;DHT22;8250;52.426;9.450;2022-09-28T06:52:37;10.10;99.90
16285;DHT22;8250;52.426;9.450;2022-09-28T06:55:04;10.10;99.90
16285;DHT22;8250;52.426;9.450;2022-09-28T06:57:32;10.10;99.90
16285;DHT22;8250;52.426;9.450;2022-09-28T07:00:00;10.20;99.90
16285;DHT22;8250;52.426;9.450;2022-09-28T07:02:27;10.20;99.90
16285;DHT22;8250;52.426;9.450;2022-09-28T07:04:55;10.20;99.90
16285;DHT22;8250;52.426;9.450;2022-09-28T07:07:23;10.20;99.90
16285;DHT22;8250;52.426;9.450;2022-09-28T07:09:52;10.20;99.90
16285;DHT22;8250;52.426;9.450;2022-09-28T07:12:19;10.30;99.90
16285;DHT22;8250;52.426;9.450;2022-09-28T07:14:46;10.30;99.90
16285;DHT22;8250;52.426;9.450;2022-09-28T07:17:15;10.30;99.90
16285;DHT22;8250;52.426;9.450;2022-09-28T07:19:42;10.30;99.90
16285;DHT22;8250;52.426;9.450;2022-09-28T07:22:09;10.40;99.90
16285;DHT22;8250;52.426;9.450;2022-09-28T07:24:38;10.40;99.90
16285;DHT22;8250;52.426;9.450;2022-09-28T07:27:06;10.40;99.90
16285;DHT22;8250;52.426;9.450;2022-09-28T07:29:34;10.50;99.90
16285;DHT22;8250;52.426;9.450;2022-09-28T07:32:01;10.40;99.90
16285;DHT22;8250;52.426;9.450;2022-09-28T07:34:29;10.50;99.90
16285;DHT22;8250;52.426;9.450;2022-09-28T07:36:56;10.60;99.90
16285;DHT22;8250;52.426;9.450;2022-09-28T07:39:24;10.50;99.90
16285;DHT22;8250;52.426;9.450;2022-09-28T07:41:51;10.50;99.90
16285;DHT22;8250;52.426;9.450;2022-09-28T07:44:17;10.50;99.90
16285;DHT22;8250;52.426;9.450;2022-09-28T07:46:44;10.50;99.90
16285;DHT22;8250;52.426;9.450;2022-09-28T07:49:11;10.60;99.90
16285;DHT22;8250;52.426;9.450;2022-09-28T07:51:41;10.60;99.90
16285;DHT22;8250;52.426;9.450;2022-09-28T07:54:09;10.60;99.90
16285;DHT22;8250;52.426;9.450;2022-09-28T07:56:36;10.60;99.90
16285;DHT22;8250;52.426;9.450;2022-09-28T07:59:03;10.60;99.90
16285;DHT22;8250;52.426;9.450;2022-09-28T08:01:30;10.60;99.90
16285;DHT22;8250;52.426;9.450;2022-09-28T08:03:57;10.60;99.90
16285;DHT22;8250;52.426;9.450;2022-09-28T08:06:23;10.70;99.90
16285;DHT22;8250;52.426;9.450;2022-09-28T08:08:52;10.60;99.90
16285;DHT22;8250;52.426;9.450;2022-09-28T08:11:20;10.60;99.90
16285;DHT22;8250;52.426;9.450;2022-09-28T08:13:47;10.60;99.90
16285;DHT22;8250;52.426;9.450;2022-09-28T08:16:16;10.60;99.90
16285;DHT22;8250;52.426;9.450;2022-09-28T08:18:43;10.50;99.90
16285;DHT22;8250;52.426;9.450;2022-09-28T08:21:10;10.40;99.90
16285;DHT22;8250;52.426;9.450;2022-09-28T08:23:55;10.40;99.90
16285;DHT22;8250;52.426;9.450;2022-09-28T08:26:23;10.30;99.90
16285;DHT22;8250;52.426;9.450;2022-09-28T08:28:50;10.30;99.90
16285;DHT22;8250;52.426;9.450;2022-09-28T08:31:17;10.30;99.90
16285;DHT22;8250;52.426;9.450;2022-09-28T08:33:44;10.30;99.90
16285;DHT22;8250;52.426;9.450;2022-09-28T08:36:11;10.30;99.90
16285;DHT22;8250;52.426;9.450;2022-09-28T08:38:37;10.20;99.90
16285;DHT22;8250;52.426;9.450;2022-09-28T08:41:14;10.30;99.90
16285;DHT22;8250;52.426;9.450;2022-09-28T08:43:56;10.30;99.90
16285;DHT22;8250;52.426;9.450;2022-09-28T08:46:25;10.30;99.90
16285;DHT22;8250;52.426;9.450;2022-09-28T08:48:57;10.30;99.90
16285;DHT22;8250;52.426;9.450;2022-09-28T08:51:28;10.30;99.90
16285;DHT22;8250;52.426;9.450;2022-09-28T08:53:59;10.30;99.90
16285;DHT22;8250;52.426;9.450;2022-09-28T08:56:36;10.30;99.90
16285;DHT22;8250;52.426;9.450;2022-09-28T08:59:10;10.30;99.90
16285;DHT22;8250;52.426;9.450;2022-09-28T09:01:43;10.30;99.90
16285;DHT22;8250;52.426;9.450;2022-09-28T09:04:12;10.30;99.90
16285;DHT22;8250;52.426;9.450;2022-09-28T09:09:44;10.30;99.90
16285;DHT22;8250;52.426;9.450;2022-09-28T09:12:19;10.30;99.90
16285;DHT22;8250;52.426;9.450;2022-09-28T09:15:31;10.40;99.90
16285;DHT22;8250;52.426;9.450;2022-09-28T09:18:15;10.40;99.90
16285;DHT22;8250;52.426;9.450;2022-09-28T09:20:47;10.40;99.90
16285;DHT22;8250;52.426;9.450;2022-09-28T09:23:17;10.50;99.90
16285;DHT22;8250;52.426;9.450;2022-09-28T09:25:48;10.50;99.90
16285;DHT22;8250;52.426;9.450;2022-09-28T09:28:45;10.50;99.90
16285;DHT22;8250;52.426;9.450;2022-09-28T09:31:38;10.60;99.90
16285;DHT22;8250;52.426;9.450;2022-09-28T09:37:07;10.60;99.90
16285;DHT22;8250;52.426;9.450;2022-09-28T09:39:45;10.60;99.90
16285;DHT22;8250;52.426;9.450;2022-09-28T09:42:27;10.60;99.90
16285;DHT22;8250;52.426;9.450;2022-09-28T09:45:13;10.60;99.90
16285;DHT22;8250;52.426;9.450;2022-09-28T09:47:45;10.70;99.90
16285;DHT22;8250;52.426;9.450;2022-09-28T09:50:21;10.70;99.90
16285;DHT22;8250;52.426;9.450;2022-09-28T09:52:57;10.70;99.90
16285;DHT22;8250;52.426;9.450;2022-09-28T09:55:29;10.60;99.90
16285;DHT22;8250;52.426;9.450;2022-09-28T09:58:03;10.60;99.90
16285;DHT22;8250;52.426;9.450;2022-09-28T10:00:34;10.70;99.90
16285;DHT22;8250;52.426;9.450;2022-09-28T10:03:01;10.70;99.90
16285;DHT22;8250;52.426;9.450;2022-09-28T10:05:30;10.70;99.90
16285;DHT22;8250;52.426;9.450;2022-09-28T10:08:02;10.70;99.90
16285;DHT22;8250;52.426;9.450;2022-09-28T10:10:33;10.80;99.90
16285;DHT22;8250;52.426;9.450;2022-09-28T10:13:01;10.80;99.90
16285;DHT22;8250;52.426;9.450;2022-09-28T10:15:30;10.80;99.90
16285;DHT22;8250;52.426;9.450;2022-09-28T10:18:00;10.80;99.90
16285;DHT22;8250;52.426;9.450;2022-09-28T10:20:33;10.80;99.90
16285;DHT22;8250;52.426;9.450;2022-09-28T10:23:03;10.90;99.90
16285;DHT22;8250;52.426;9.450;2022-09-28T10:25:32;10.80;99.90
16285;DHT22;8250;52.426;9.450;2022-09-28T10:28:02;10.80;99.90
16285;DHT22;8250;52.426;9.450;2022-09-28T10:30:35;10.80;99.90
16285;DHT22;8250;52.426;9.450;2022-09-28T10:33:26;10.90;99.90
16285;DHT22;8250;52.426;9.450;2022-09-28T10:35:54;10.90;99.90
16285;DHT22;8250;52.426;9.450;2022-09-28T10:38:21;11.00;99.90
16285;DHT22;8250;52.426;9.450;2022-09-28T10:40:50;11.00;99.90
16285;DHT22;8250;52.426;9.450;2022-09-28T10:43:21;10.90;99.90
16285;DHT22;8250;52.426;9.450;2022-09-28T10:45:59;10.90;99.90
16285;DHT22;8250;52.426;9.450;2022-09-28T10:48:33;11.00;99.90
16285;DHT22;8250;52.426;9.450;2022-09-28T10:51:05;11.00;99.90
16285;DHT22;8250;52.426;9.450;2022-09-28T10:53:33;11.00;99.90
16285;DHT22;8250;52.426;9.450;2022-09-28T10:56:03;11.00;99.90
16285;DHT22;8250;52.426;9.450;2022-09-28T10:58:35;11.10;99.90
16285;DHT22;8250;52.426;9.450;2022-09-28T11:01:07;11.20;99.90
16285;DHT22;8250;52.426;9.450;2022-09-28T11:03:47;11.20;99.90
16285;DHT22;8250;52.426;9.450;2022-09-28T11:06:15;11.20;99.90
16285;DHT22;8250;52.426;9.450;2022-09-28T11:08:48;11.30;99.90
16285;DHT22;8250;52.426;9.450;2022-09-28T11:11:16;11.30;99.90
16285;DHT22;8250;52.426;9.450;2022-09-28T11:13:46;11.30;99.90
16285;DHT22;8250;52.426;9.450;2022-09-28T11:16:22;11.30;99.90
16285;DHT22;8250;52.426;9.450;2022-09-28T11:18:51;11.40;99.90
16285;DHT22;8250;52.426;9.450;2022-09-28T11:21:22;11.40;99.90
16285;DHT22;8250;52.426;9.450;2022-09-28T11:24:02;11.40;99.90
16285;DHT22;8250;52.426;9.450;2022-09-28T11:26:37;11.40;99.90
16285;DHT22;8250;52.426;9.450;2022-09-28T11:29:05;11.50;99.90
16285;DHT22;8250;52.426;9.450;2022-09-28T11:31:33;11.50;99.90
16285;DHT22;8250;52.426;9.450;2022-09-28T11:34:05;11.60;99.90
16285;DHT22;8250;52.426;9.450;2022-09-28T11:37:00;11.60;99.90
16285;DHT22;8250;52.426;9.450;2022-09-28T11:39:39;11.60;99.90
16285;DHT22;8250;52.426;9.450;2022-09-28T11:42:16;11.60;99.90
16285;DHT22;8250;52.426;9.450;2022-09-28T11:44:45;11.60;99.90
16285;DHT22;8250;52.426;9.450;2022-09-28T11:50:12;11.60;99.90
16285;DHT22;8250;52.426;9.450;2022-09-28T11:52:48;11.70;99.90
16285;DHT22;8250;52.426;9.450;2022-09-28T11:55:23;11.70;99.90
16285;DHT22;8250;52.426;9.450;2022-09-28T11:57:55;11.60;99.90
16285;DHT22;8250;52.426;9.450;2022-09-28T12:00:26;11.70;99.90
16285;DHT22;8250;52.426;9.450;2022-09-28T12:02:58;11.70;99.90
16285;DHT22;8250;52.426;9.450;2022-09-28T12:05:30;11.70;99.90
16285;DHT22;8250;52.426;9.450;2022-09-28T12:08:01;11.80;99.90
16285;DHT22;8250;52.426;9.450;2022-09-28T12:10:35;11.80;99.90
16285;DHT22;8250;52.426;9.450;2022-09-28T12:13:08;11.80;99.90
16285;DHT22;8250;52.426;9.450;2022-09-28T12:15:42;11.80;99.90
16285;DHT22;8250;52.426;9.450;2022-09-28T12:18:14;11.90;99.90
16285;DHT22;8250;52.426;9.450;2022-09-28T12:20:47;11.90;99.90
16285;DHT22;8250;52.426;9.450;2022-09-28T12:23:19;11.90;99.90
16285;DHT22;8250;52.426;9.450;2022-09-28T12:25:54;11.90;99.90
16285;DHT22;8250;52.426;9.450;2022-09-28T12:28:28;11.90;99.90
16285;DHT22;8250;52.426;9.450;2022-09-28T12:30:57;11.90;99.90
16285;DHT22;8250;52.426;9.450;2022-09-28T12:33:25;11.80;99.90
16285;DHT22;8250;52.426;9.450;2022-09-28T12:36:04;11.80;99.90
16285;DHT22;8250;52.426;9.450;2022-09-28T12:38:46;11.90;99.90
16285;DHT22;8250;52.426;9.450;2022-09-28T12:41:23;11.90;99.90
16285;DHT22;8250;52.426;9.450;2022-09-28T12:44:02;11.90;99.90
16285;DHT22;8250;52.426;9.450;2022-09-28T12:46:48;11.90;99.90
16285;DHT22;8250;52.426;9.450;2022-09-28T12:49:31;12.00;99.90
16285;DHT22;8250;52.426;9.450;2022-09-28T12:52:08;11.90;99.90
16285;DHT22;8250;52.426;9.450;2022-09-28T12:55:00;11.90;99.90
16285;DHT22;8250;52.426;9.450;2022-09-28T12:57:37;11.90;99.90
16285;DHT22;8250;52.426;9.450;2022-09-28T13:00:09;12.00;99.90
16285;DHT22;8250;52.426;9.450;2022-09-28T13:05:53;12.00;99.90
16285;DHT22;8250;52.426;9.450;2022-09-28T13:08:32;12.00;99.90
16285;DHT22;8250;52.426;9.450;2022-09-28T13:11:10;12.10;99.90
16285;DHT22;8250;52.426;9.450;2022-09-28T13:13:49;12.20;99.90
16285;DHT22;8250;52.426;9.450;2022-09-28T13:16:26;12.20;99.90
16285;DHT22;8250;52.426;9.450;2022-09-28T13:19:02;12.20;99.90
16285;DHT22;8250;52.426;9.450;2022-09-28T13:21:35;12.20;99.90
16285;DHT22;8250;52.426;9.450;2022-09-28T13:24:10;12.20;99.90
16285;DHT22;8250;52.426;9.450;2022-09-28T13:26:41;12.20;99.90
16285;DHT22;8250;52.426;9.450;2022-09-28T13:29:11;12.20;99.90
16285;DHT22;8250;52.426;9.450;2022-09-28T13:31:43;12.20;99.90
16285;DHT22;8250;52.426;9.450;2022-09-28T13:34:14;12.20;99.90
16285;DHT22;8250;52.426;9.450;2022-09-28T13:36:43;12.30;99.90
16285;DHT22;8250;52.426;9.450;2022-09-28T13:39:34;12.30;99.90
16285;DHT22;8250;52.426;9.450;2022-09-28T13:42:03;12.40;99.90
16285;DHT22;8250;52.426;9.450;2022-09-28T13:50:25;12.40;99.90
16285;DHT22;8250;52.426;9.450;2022-09-28T13:52:59;12.40;99.90
16285;DHT22;8250;52.426;9.450;2022-09-28T13:55:40;12.50;99.90
16285;DHT22;8250;52.426;9.450;2022-09-28T13:58:21;12.40;99.90
16285;DHT22;8250;52.426;9.450;2022-09-28T14:00:55;12.40;99.90
16285;DHT22;8250;52.426;9.450;2022-09-28T14:03:26;12.50;99.90
16285;DHT22;8250;52.426;9.450;2022-09-28T14:06:06;12.50;99.90
16285;DHT22;8250;52.426;9.450;2022-09-28T14:08:37;12.50;99.90
16285;DHT22;8250;52.426;9.450;2022-09-28T14:11:40;12.50;99.90
16285;DHT22;8250;52.426;9.450;2022-09-28T14:14:28;12.50;99.90
16285;DHT22;8250;52.426;9.450;2022-09-28T14:20:01;12.50;99.90
16285;DHT22;8250;52.426;9.450;2022-09-28T14:22:36;12.50;99.90
16285;DHT22;8250;52.426;9.450;2022-09-28T14:25:11;12.50;99.90
16285;DHT22;8250;52.426;9.450;2022-09-28T14:27:59;12.50;99.90
16285;DHT22;8250;52.426;9.450;2022-09-28T14:30:43;12.50;99.90
16285;DHT22;8250;52.426;9.450;2022-09-28T14:33:16;12.60;99.90
16285;DHT22;8250;52.426;9.450;2022-09-28T14:35:49;12.60;99.90
16285;DHT22;8250;52.426;9.450;2022-09-28T14:38:17;12.60;99.90
16285;DHT22;8250;52.426;9.450;2022-09-28T14:41:04;12.60;99.90
16285;DHT22;8250;52.426;9.450;2022-09-28T14:44:03;12.60;99.90
16285;DHT22;8250;52.426;9.450;2022-09-28T14:46:40;12.60;99.90
16285;DHT22;8250;52.426;9.450;2022-09-28T14:49:42;12.60;99.90
16285;DHT22;8250;52.426;9.450;2022-09-28T14:52:12;12.60;99.90
16285;DHT22;8250;52.426;9.450;2022-09-28T14:54:49;12.60;99.90
16285;DHT22;8250;52.426;9.450;2022-09-28T14:57:20;12.60;99.90
16285;DHT22;8250;52.426;9.450;2022-09-28T14:59:49;12.60;99.90
16285;DHT22;8250;52.426;9.450;2022-09-28T15:02:22;12.60;99.90
16285;DHT22;8250;52.426;9.450;2022-09-28T15:04:52;12.60;99.90
16285;DHT22;8250;52.426;9.450;2022-09-28T15:07:22;12.60;99.90
16285;DHT22;8250;52.426;9.450;2022-09-28T15:09:51;12.60;99.90
16285;DHT22;8250;52.426;9.450;2022-09-28T15:12:20;12.60;99.90
16285;DHT22;8250;52.426;9.450;2022-09-28T15:14:52;12.70;99.90
16285;DHT22;8250;52.426;9.450;2022-09-28T15:17:23;12.70;99.90
16285;DHT22;8250;52.426;9.450;2022-09-28T15:20:10;12.80;99.90
16285;DHT22;8250;52.426;9.450;2022-09-28T15:22:44;12.80;99.90
16285;DHT22;8250;52.426;9.450;2022-09-28T15:25:13;12.90;99.90
16285;DHT22;8250;52.426;9.450;2022-09-28T15:27:40;12.90;99.90
16285;DHT22;8250;52.426;9.450;2022-09-28T15:30:30;12.90;99.90
16285;DHT22;8250;52.426;9.450;2022-09-28T15:32:59;12.90;99.90
16285;DHT22;8250;52.426;9.450;2022-09-28T15:35:40;12.90;99.90
16285;DHT22;8250;52.426;9.450;2022-09-28T15:38:10;12.90;99.90
16285;DHT22;8250;52.426;9.450;2022-09-28T15:40:40;12.80;99.90
16285;DHT22;8250;52.426;9.450;2022-09-28T15:43:20;12.90;99.90
16285;DHT22;8250;52.426;9.450;2022-09-28T15:45:56;12.80;99.90
16285;DHT22;8250;52.426;9.450;2022-09-28T15:48:29;12.80;99.90
16285;DHT22;8250;52.426;9.450;2022-09-28T15:51:04;12.70;99.90
16285;DHT22;8250;52.426;9.450;2022-09-28T15:53:38;12.70;99.90
16285;DHT22;8250;52.426;9.450;2022-09-28T15:56:06;12.70;99.90
16285;DHT22;8250;52.426;9.450;2022-09-28T15:58:35;12.70;99.90
16285;DHT22;8250;52.426;9.450;2022-09-28T16:01:30;12.70;99.90
16285;DHT22;8250;52.426;9.450;2022-09-28T16:04:35;12.80;99.90
16285;DHT22;8250;52.426;9.450;2022-09-28T16:07:25;12.70;99.90
16285;DHT22;8250;52.426;9.450;2022-09-28T16:09:58;12.60;99.90
16285;DHT22;8250;52.426;9.450;2022-09-28T16:12:29;12.60;99.90
16285;DHT22;8250;52.426;9.450;2022-09-28T16:15:02;12.50;99.90
16285;DHT22;8250;52.426;9.450;2022-09-28T16:17:33;12.50;99.90
16285;DHT22;8250;52.426;9.450;2022-09-28T16:20:03;12.40;99.90
16285;DHT22;8250;52.426;9.450;2022-09-28T16:22:30;12.40;99.90
16285;DHT22;8250;52.426;9.450;2022-09-28T16:24:59;12.30;99.90
16285;DHT22;8250;52.426;9.450;2022-09-28T16:27:28;12.30;99.90
16285;DHT22;8250;52.426;9.450;2022-09-28T16:30:13;12.20;99.90
16285;DHT22;8250;52.426;9.450;2022-09-28T16:32:49;12.10;99.90
16285;DHT22;8250;52.426;9.450;2022-09-28T16:35:22;12.00;99.90
16285;DHT22;8250;52.426;9.450;2022-09-28T16:38:08;12.00;99.90
16285;DHT22;8250;52.426;9.450;2022-09-28T16:40:38;11.90;99.90
16285;DHT22;8250;52.426;9.450;2022-09-28T16:43:07;11.90;99.90
16285;DHT22;8250;52.426;9.450;2022-09-28T16:45:34;11.80;99.90